sensor_id;sensor_type;location;lat;lon;timestamp;temperature;humidity
152;DHT22;68;48.792;9.164;2023-03-24T00:00:49;14.60;86.90
152;DHT22;68;48.792;9.164;2023-03-24T00:03:15;14.50;84.60
152;DHT22;68;48.792;9.164;2023-03-24T00:05:42;14.70;85.90
152;DHT22;68;48.792;9.164;2023-03-24T00:08:09;15.00;85.70
152;DHT22;68;48.792;9.164;2023-03-24T00:10:36;14.90;84.30
152;DHT22;68;48.792;9.164;2023-03-24T00:13:06;14.90;85.70
152;DHT22;68;48.792;9.164;2023-03-24T00:15:33;14.70;86.60
152;DHT22;68;48.792;9.164;2023-03-24T00:18:00;14.60;85.90
152;DHT22;68;48.792;9.164;2023-03-24T00:20:27;14.50;85.60
152;DHT22;68;48.792;9.164;2023-03-24T00:22:55;14.30;84.80
152;DHT22;68;48.792;9.164;2023-03-24T00:25:25;14.40;85.40
152;DHT22;68;48.792;9.164;2023-03-24T00:27:54;14.40;84.20
152;DHT22;68;48.792;9.164;2023-03-24T00:30:23;14.50;84.20
152;DHT22;68;48.792;9.164;2023-03-24T00:32:50;14.50;84.20
152;DHT22;68;48.792;9.164;2023-03-24T00:35:18;14.60;84.20
152;DHT22;68;48.792;9.164;2023-03-24T00:37:45;14.50;83.80
152;DHT22;68;48.792;9.164;2023-03-24T00:40:14;14.60;84.30
152;DHT22;68;48.792;9.164;2023-03-24T00:42:42;14.50;83.50
152;DHT22;68;48.792;9.164;2023-03-24T00:45:12;14.40;83.50
152;DHT22;68;48.792;9.164;2023-03-24T00:47:41;14.40;83.10
152;DHT22;68;48.792;9.164;2023-03-24T00:50:13;14.40;83.30
152;DHT22;68;48.792;9.164;2023-03-24T00:52:42;14.40;83.30
152;DHT22;68;48.792;9.164;2023-03-24T00:55:12;14.40;83.00
152;DHT22;68;48.792;9.164;2023-03-24T00:57:40;14.40;82.20
152;DHT22;68;48.792;9.164;2023-03-24T01:00:15;14.30;82.60
152;DHT22;68;48.792;9.164;2023-03-24T01:02:45;14.30;82.70
152;DHT22;68;48.792;9.164;2023-03-24T01:05:13;14.40;82.60
152;DHT22;68;48.792;9.164;2023-03-24T01:07:42;14.30;82.10
152;DHT22;68;48.792;9.164;2023-03-24T01:10:11;14.30;82.10
152;DHT22;68;48.792;9.164;2023-03-24T01:12:39;14.20;82.00
152;DHT22;68;48.792;9.164;2023-03-24T01:15:11;14.30;82.20
152;DHT22;68;48.792;9.164;2023-03-24T01:17:39;14.40;81.90
152;DHT22;68;48.792;9.164;2023-03-24T01:20:10;14.30;81.60
152;DHT22;68;48.792;9.164;2023-03-24T01:22:38;14.50;81.30
152;DHT22;68;48.792;9.164;2023-03-24T01:25:06;14.50;80.80
152;DHT22;68;48.792;9.164;2023-03-24T01:27:34;14.50;81.00
152;DHT22;68;48.792;9.164;2023-03-24T01:30:03;14.40;81.20
152;DHT22;68;48.792;9.164;2023-03-24T01:32:30;14.40;81.00
152;DHT22;68;48.792;9.164;2023-03-24T01:34:57;14.50;80.50
152;DHT22;68;48.792;9.164;2023-03-24T01:37:26;14.60;80.40
152;DHT22;68;48.792;9.164;2023-03-24T01:39:53;14.70;80.50
152;DHT22;68;48.792;9.164;2023-03-24T01:42:21;14.50;80.30
152;DHT22;68;48.792;9.164;2023-03-24T01:44:50;14.40;80.70
152;DHT22;68;48.792;9.164;2023-03-24T01:47:19;14.40;81.10
152;DHT22;68;48.792;9.164;2023-03-24T01:49:49;14.50;81.20
152;DHT22;68;48.792;9.164;2023-03-24T01:52:27;14.50;81.10
152;DHT22;68;48.792;9.164;2023-03-24T01:54:58;14.50;80.80
152;DHT22;68;48.792;9.164;2023-03-24T01:57:29;14.60;81.00
152;DHT22;68;48.792;9.164;2023-03-24T01:59:58;14.60;80.50
152;DHT22;68;48.792;9.164;2023-03-24T02:02:27;14.60;80.40
152;DHT22;68;48.792;9.164;2023-03-24T02:05:01;14.50;80.20
152;DHT22;68;48.792;9.164;2023-03-24T02:07:32;14.60;80.30
152;DHT22;68;48.792;9.164;2023-03-24T02:10:02;14.50;79.90
152;DHT22;68;48.792;9.164;2023-03-24T02:12:30;14.60;80.10
152;DHT22;68;48.792;9.164;2023-03-24T02:14:59;14.60;79.90
152;DHT22;68;48.792;9.164;2023-03-24T02:17:39;14.50;79.70
152;DHT22;68;48.792;9.164;2023-03-24T02:23:30;14.50;80.20
152;DHT22;68;48.792;9.164;2023-03-24T02:26:37;14.50;79.90
152;DHT22;68;48.792;9.164;2023-03-24T02:29:34;14.60;79.70
152;DHT22;68;48.792;9.164;2023-03-24T02:35:52;14.60;79.30
152;DHT22;68;48.792;9.164;2023-03-24T02:41:32;14.40;79.40
152;DHT22;68;48.792;9.164;2023-03-24T02:44:04;14.40;79.50
152;DHT22;68;48.792;9.164;2023-03-24T02:46:37;14.20;79.90
152;DHT22;68;48.792;9.164;2023-03-24T02:49:10;14.20;79.90
152;DHT22;68;48.792;9.164;2023-03-24T02:51:47;14.30;79.60
152;DHT22;68;48.792;9.164;2023-03-24T02:54:20;14.30;79.20
152;DHT22;68;48.792;9.164;2023-03-24T02:56:54;14.30;79.00
152;DHT22;68;48.792;9.164;2023-03-24T02:59:28;14.40;78.90
152;DHT22;68;48.792;9.164;2023-03-24T03:02:00;14.60;78.70
152;DHT22;68;48.792;9.164;2023-03-24T03:04:30;14.70;78.50
152;DHT22;68;48.792;9.164;2023-03-24T03:07:02;14.60;79.00
152;DHT22;68;48.792;9.164;2023-03-24T03:09:32;14.70;78.30
152;DHT22;68;48.792;9.164;2023-03-24T03:12:03;14.90;77.80
152;DHT22;68;48.792;9.164;2023-03-24T03:14:36;15.10;77.50
152;DHT22;68;48.792;9.164;2023-03-24T03:17:06;15.10;76.90
152;DHT22;68;48.792;9.164;2023-03-24T03:19:39;14.90;77.10
152;DHT22;68;48.792;9.164;2023-03-24T03:22:11;14.90;78.00
152;DHT22;68;48.792;9.164;2023-03-24T03:24:42;15.00;77.70
152;DHT22;68;48.792;9.164;2023-03-24T03:27:15;15.10;77.00
152;DHT22;68;48.792;9.164;2023-03-24T03:29:45;15.20;77.00
152;DHT22;68;48.792;9.164;2023-03-24T03:32:17;15.20;77.10
152;DHT22;68;48.792;9.164;2023-03-24T03:34:51;15.30;76.70
152;DHT22;68;48.792;9.164;2023-03-24T03:37:24;15.20;77.00
152;DHT22;68;48.792;9.164;2023-03-24T03:39:56;15.20;76.80
152;DHT22;68;48.792;9.164;2023-03-24T03:42:25;15.10;77.40
152;DHT22;68;48.792;9.164;2023-03-24T03:44:52;14.90;77.30
152;DHT22;68;48.792;9.164;2023-03-24T03:47:20;14.80;77.70
152;DHT22;68;48.792;9.164;2023-03-24T03:49:47;14.70;77.60
152;DHT22;68;48.792;9.164;2023-03-24T03:52:15;14.70;77.30
152;DHT22;68;48.792;9.164;2023-03-24T03:54:42;14.80;77.70
152;DHT22;68;48.792;9.164;2023-03-24T03:57:10;14.70;76.90
152;DHT22;68;48.792;9.164;2023-03-24T03:59:39;14.70;76.90
152;DHT22;68;48.792;9.164;2023-03-24T04:02:17;14.80;77.20
152;DHT22;68;48.792;9.164;2023-03-24T04:05:03;14.90;76.80
152;DHT22;68;48.792;9.164;2023-03-24T04:07:49;14.90;76.70
152;DHT22;68;48.792;9.164;2023-03-24T04:10:23;14.90;76.50
152;DHT22;68;48.792;9.164;2023-03-24T04:13:07;15.00;76.30
152;DHT22;68;48.792;9.164;2023-03-24T04:15:41;15.10;75.90
152;DHT22;68;48.792;9.164;2023-03-24T04:18:27;15.00;75.60
152;DHT22;68;48.792;9.164;2023-03-24T04:21:09;14.90;76.10
152;DHT22;68;48.792;9.164;2023-03-24T04:23:44;15.00;75.60
152;DHT22;68;48.792;9.164;2023-03-24T04:26:18;15.00;75.80
152;DHT22;68;48.792;9.164;2023-03-24T04:28:57;14.90;75.70
152;DHT22;68;48.792;9.164;2023-03-24T04:31:32;14.90;75.90
152;DHT22;68;48.792;9.164;2023-03-24T04:34:04;15.00;75.50
152;DHT22;68;48.792;9.164;2023-03-24T04:36:36;15.10;75.30
152;DHT22;68;48.792;9.164;2023-03-24T04:39:08;15.20;75.20
152;DHT22;68;48.792;9.164;2023-03-24T04:41:37;15.20;75.30
152;DHT22;68;48.792;9.164;2023-03-24T04:44:05;15.30;74.80
152;DHT22;68;48.792;9.164;2023-03-24T04:46:34;15.40;74.60
152;DHT22;68;48.792;9.164;2023-03-24T04:49:00;15.50;74.40
152;DHT22;68;48.792;9.164;2023-03-24T04:51:28;15.30;74.80
152;DHT22;68;48.792;9.164;2023-03-24T04:53:55;15.30;74.80
152;DHT22;68;48.792;9.164;2023-03-24T04:56:29;15.40;74.80
152;DHT22;68;48.792;9.164;2023-03-24T04:58:56;15.20;76.50
152;DHT22;68;48.792;9.164;2023-03-24T05:01:24;15.00;76.10
152;DHT22;68;48.792;9.164;2023-03-24T05:03:56;15.10;76.40
152;DHT22;68;48.792;9.164;2023-03-24T05:06:23;15.00;76.80
152;DHT22;68;48.792;9.164;2023-03-24T05:08:50;15.00;77.60
152;DHT22;68;48.792;9.164;2023-03-24T05:11:18;15.00;77.50
152;DHT22;68;48.792;9.164;2023-03-24T05:13:45;15.10;77.60
152;DHT22;68;48.792;9.164;2023-03-24T05:16:13;15.10;77.60
152;DHT22;68;48.792;9.164;2023-03-24T05:18:40;15.20;77.70
152;DHT22;68;48.792;9.164;2023-03-24T05:21:08;15.20;78.10
152;DHT22;68;48.792;9.164;2023-03-24T05:23:35;15.20;78.20
152;DHT22;68;48.792;9.164;2023-03-24T05:26:02;15.20;78.80
152;DHT22;68;48.792;9.164;2023-03-24T05:28:29;15.20;79.80
152;DHT22;68;48.792;9.164;2023-03-24T05:30:56;15.10;80.50
152;DHT22;68;48.792;9.164;2023-03-24T05:33:24;15.00;82.40
152;DHT22;68;48.792;9.164;2023-03-24T05:35:51;14.80;83.30
152;DHT22;68;48.792;9.164;2023-03-24T05:38:19;14.70;84.30
152;DHT22;68;48.792;9.164;2023-03-24T05:40:46;14.70;86.10
152;DHT22;68;48.792;9.164;2023-03-24T05:43:13;14.70;87.20
152;DHT22;68;48.792;9.164;2023-03-24T05:45:40;14.70;88.20
152;DHT22;68;48.792;9.164;2023-03-24T05:48:06;14.60;89.60
152;DHT22;68;48.792;9.164;2023-03-24T05:50:33;14.70;90.00
152;DHT22;68;48.792;9.164;2023-03-24T05:53:00;14.80;90.00
152;DHT22;68;48.792;9.164;2023-03-24T05:55:28;14.80;90.40
152;DHT22;68;48.792;9.164;2023-03-24T05:57:56;14.80;90.20
152;DHT22;68;48.792;9.164;2023-03-24T06:00:26;14.60;91.30
152;DHT22;68;48.792;9.164;2023-03-24T06:02:53;14.50;92.30
152;DHT22;68;48.792;9.164;2023-03-24T06:05:21;14.40;93.10
152;DHT22;68;48.792;9.164;2023-03-24T06:07:47;14.10;93.30
152;DHT22;68;48.792;9.164;2023-03-24T06:10:14;14.20;93.80
152;DHT22;68;48.792;9.164;2023-03-24T06:12:44;14.30;93.80
152;DHT22;68;48.792;9.164;2023-03-24T06:15:11;14.20;93.70
152;DHT22;68;48.792;9.164;2023-03-24T06:17:42;14.00;93.80
152;DHT22;68;48.792;9.164;2023-03-24T06:20:11;13.70;93.60
152;DHT22;68;48.792;9.164;2023-03-24T06:22:41;13.80;93.20
152;DHT22;68;48.792;9.164;2023-03-24T06:25:10;13.70;92.80
152;DHT22;68;48.792;9.164;2023-03-24T06:27:37;13.60;92.30
152;DHT22;68;48.792;9.164;2023-03-24T06:30:09;13.50;92.80
152;DHT22;68;48.792;9.164;2023-03-24T06:32:36;13.70;91.90
152;DHT22;68;48.792;9.164;2023-03-24T06:35:04;13.80;91.80
152;DHT22;68;48.792;9.164;2023-03-24T06:37:31;13.90;92.10
152;DHT22;68;48.792;9.164;2023-03-24T06:39:58;14.10;93.60
152;DHT22;68;48.792;9.164;2023-03-24T06:42:26;14.20;93.60
152;DHT22;68;48.792;9.164;2023-03-24T06:44:52;14.20;93.60
152;DHT22;68;48.792;9.164;2023-03-24T06:47:20;14.30;93.70
152;DHT22;68;48.792;9.164;2023-03-24T06:49:47;14.50;93.80
152;DHT22;68;48.792;9.164;2023-03-24T06:52:14;14.60;93.80
152;DHT22;68;48.792;9.164;2023-03-24T06:54:41;14.60;93.70
152;DHT22;68;48.792;9.164;2023-03-24T06:57:07;14.60;93.60
152;DHT22;68;48.792;9.164;2023-03-24T06:59:34;14.60;93.20
152;DHT22;68;48.792;9.164;2023-03-24T07:02:01;14.50;93.40
152;DHT22;68;48.792;9.164;2023-03-24T07:04:29;14.40;93.60
152;DHT22;68;48.792;9.164;2023-03-24T07:07:01;14.30;93.70
152;DHT22;68;48.792;9.164;2023-03-24T07:09:28;14.10;94.00
152;DHT22;68;48.792;9.164;2023-03-24T07:11:55;14.10;94.00
152;DHT22;68;48.792;9.164;2023-03-24T07:14:22;14.10;94.20
152;DHT22;68;48.792;9.164;2023-03-24T07:16:50;14.30;94.10
152;DHT22;68;48.792;9.164;2023-03-24T07:19:17;14.30;94.00
152;DHT22;68;48.792;9.164;2023-03-24T07:21:45;14.30;93.80
152;DHT22;68;48.792;9.164;2023-03-24T07:24:14;14.30;93.80
152;DHT22;68;48.792;9.164;2023-03-24T07:26:41;14.00;92.80
152;DHT22;68;48.792;9.164;2023-03-24T07:29:08;14.00;92.40
152;DHT22;68;48.792;9.164;2023-03-24T07:31:35;14.00;92.30
152;DHT22;68;48.792;9.164;2023-03-24T07:34:03;14.00;91.70
152;DHT22;68;48.792;9.164;2023-03-24T07:36:30;14.00;90.70
152;DHT22;68;48.792;9.164;2023-03-24T07:38:59;13.90;89.30
152;DHT22;68;48.792;9.164;2023-03-24T07:41:26;13.60;88.10
152;DHT22;68;48.792;9.164;2023-03-24T07:43:53;13.60;84.80
152;DHT22;68;48.792;9.164;2023-03-24T07:46:20;13.70;84.60
152;DHT22;68;48.792;9.164;2023-03-24T07:48:47;13.70;82.20
152;DHT22;68;48.792;9.164;2023-03-24T07:51:14;13.60;82.50
152;DHT22;68;48.792;9.164;2023-03-24T07:53:42;13.60;81.20
152;DHT22;68;48.792;9.164;2023-03-24T07:56:11;13.50;78.80
152;DHT22;68;48.792;9.164;2023-03-24T07:58:38;13.50;77.50
152;DHT22;68;48.792;9.164;2023-03-24T08:01:06;13.60;77.40
152;DHT22;68;48.792;9.164;2023-03-24T08:03:34;13.60;79.20
152;DHT22;68;48.792;9.164;2023-03-24T08:06:01;13.50;76.80
152;DHT22;68;48.792;9.164;2023-03-24T08:08:28;13.60;75.10
152;DHT22;68;48.792;9.164;2023-03-24T08:10:55;13.60;76.20
152;DHT22;68;48.792;9.164;2023-03-24T08:13:24;13.60;76.60
152;DHT22;68;48.792;9.164;2023-03-24T08:15:51;13.70;74.80
152;DHT22;68;48.792;9.164;2023-03-24T08:18:18;13.60;75.70
152;DHT22;68;48.792;9.164;2023-03-24T08:20:46;13.70;76.30
152;DHT22;68;48.792;9.164;2023-03-24T08:23:13;13.80;76.30
152;DHT22;68;48.792;9.164;2023-03-24T08:25:40;13.80;76.70
152;DHT22;68;48.792;9.164;2023-03-24T08:28:07;13.70;76.70
152;DHT22;68;48.792;9.164;2023-03-24T08:30:35;13.70;75.80
152;DHT22;68;48.792;9.164;2023-03-24T08:33:02;13.80;76.30
152;DHT22;68;48.792;9.164;2023-03-24T08:35:30;13.70;75.60
152;DHT22;68;48.792;9.164;2023-03-24T08:37:57;13.90;73.70
152;DHT22;68;48.792;9.164;2023-03-24T08:40:26;13.90;75.70
152;DHT22;68;48.792;9.164;2023-03-24T08:42:56;13.60;78.30
152;DHT22;68;48.792;9.164;2023-03-24T08:45:25;13.70;75.20
152;DHT22;68;48.792;9.164;2023-03-24T08:47:54;13.50;74.30
152;DHT22;68;48.792;9.164;2023-03-24T08:50:24;13.30;72.00
152;DHT22;68;48.792;9.164;2023-03-24T08:52:53;13.30;71.50
152;DHT22;68;48.792;9.164;2023-03-24T08:55:20;13.40;70.10
152;DHT22;68;48.792;9.164;2023-03-24T08:57:47;13.50;72.50
152;DHT22;68;48.792;9.164;2023-03-24T09:00:16;13.60;74.20
152;DHT22;68;48.792;9.164;2023-03-24T09:02:44;13.60;78.50
152;DHT22;68;48.792;9.164;2023-03-24T09:05:13;13.60;76.80
152;DHT22;68;48.792;9.164;2023-03-24T09:07:42;13.80;79.30
152;DHT22;68;48.792;9.164;2023-03-24T09:10:09;13.80;80.30
152;DHT22;68;48.792;9.164;2023-03-24T09:12:37;13.80;85.00
152;DHT22;68;48.792;9.164;2023-03-24T09:15:05;13.80;87.40
152;DHT22;68;48.792;9.164;2023-03-24T09:17:33;13.80;85.70
152;DHT22;68;48.792;9.164;2023-03-24T09:20:00;13.90;87.50
152;DHT22;68;48.792;9.164;2023-03-24T09:22:35;13.80;88.70
152;DHT22;68;48.792;9.164;2023-03-24T09:25:02;14.00;91.10
152;DHT22;68;48.792;9.164;2023-03-24T09:27:29;14.10;90.30
152;DHT22;68;48.792;9.164;2023-03-24T09:29:56;14.10;90.20
152;DHT22;68;48.792;9.164;2023-03-24T09:32:23;14.20;91.70
152;DHT22;68;48.792;9.164;2023-03-24T09:34:50;14.20;92.90
152;DHT22;68;48.792;9.164;2023-03-24T09:37:17;14.30;92.80
152;DHT22;68;48.792;9.164;2023-03-24T09:39:45;14.40;93.30
152;DHT22;68;48.792;9.164;2023-03-24T09:42:19;14.40;93.60
152;DHT22;68;48.792;9.164;2023-03-24T09:44:53;14.60;93.90
152;DHT22;68;48.792;9.164;2023-03-24T09:47:26;14.80;94.70
152;DHT22;68;48.792;9.164;2023-03-24T09:49:56;14.90;94.10
152;DHT22;68;48.792;9.164;2023-03-24T09:52:28;15.00;94.20
152;DHT22;68;48.792;9.164;2023-03-24T09:54:59;14.90;93.90
152;DHT22;68;48.792;9.164;2023-03-24T09:57:33;15.00;94.20
152;DHT22;68;48.792;9.164;2023-03-24T10:00:15;15.00;93.90
152;DHT22;68;48.792;9.164;2023-03-24T10:02:42;15.10;94.10
152;DHT22;68;48.792;9.164;2023-03-24T10:05:12;15.10;94.00
152;DHT22;68;48.792;9.164;2023-03-24T10:07:45;15.30;93.90
152;DHT22;68;48.792;9.164;2023-03-24T10:10:22;15.50;93.40
152;DHT22;68;48.792;9.164;2023-03-24T10:12:53;15.90;92.20
152;DHT22;68;48.792;9.164;2023-03-24T10:15:27;16.10;90.60
152;DHT22;68;48.792;9.164;2023-03-24T10:18:02;16.30;90.00
152;DHT22;68;48.792;9.164;2023-03-24T10:20:36;16.40;89.40
152;DHT22;68;48.792;9.164;2023-03-24T10:23:14;16.40;87.70
152;DHT22;68;48.792;9.164;2023-03-24T10:25:50;16.10;87.30
152;DHT22;68;48.792;9.164;2023-03-24T10:28:18;16.00;87.50
152;DHT22;68;48.792;9.164;2023-03-24T10:30:47;16.00;87.10
152;DHT22;68;48.792;9.164;2023-03-24T10:33:15;16.00;87.00
152;DHT22;68;48.792;9.164;2023-03-24T10:35:47;16.10;87.20
152;DHT22;68;48.792;9.164;2023-03-24T10:38:18;16.30;86.60
152;DHT22;68;48.792;9.164;2023-03-24T10:40:47;16.40;85.30
152;DHT22;68;48.792;9.164;2023-03-24T10:43:15;16.40;83.90
152;DHT22;68;48.792;9.164;2023-03-24T10:45:45;16.40;83.30
152;DHT22;68;48.792;9.164;2023-03-24T10:48:14;16.40;83.10
152;DHT22;68;48.792;9.164;2023-03-24T10:50:58;16.40;83.50
152;DHT22;68;48.792;9.164;2023-03-24T10:53:25;16.50;82.20
152;DHT22;68;48.792;9.164;2023-03-24T10:55:54;16.40;82.20
152;DHT22;68;48.792;9.164;2023-03-24T10:58:28;16.50;82.60
152;DHT22;68;48.792;9.164;2023-03-24T11:00:56;16.40;81.90
152;DHT22;68;48.792;9.164;2023-03-24T11:03:27;16.50;81.80
152;DHT22;68;48.792;9.164;2023-03-24T11:05:59;16.50;83.00
152;DHT22;68;48.792;9.164;2023-03-24T11:08:31;16.50;82.10
152;DHT22;68;48.792;9.164;2023-03-24T11:11:12;16.50;81.80
152;DHT22;68;48.792;9.164;2023-03-24T11:13:39;16.40;81.70
152;DHT22;68;48.792;9.164;2023-03-24T11:16:10;16.60;81.60
152;DHT22;68;48.792;9.164;2023-03-24T11:18:54;16.90;79.20
152;DHT22;68;48.792;9.164;2023-03-24T11:21:21;17.10;79.30
152;DHT22;68;48.792;9.164;2023-03-24T11:23:47;17.20;79.20
152;DHT22;68;48.792;9.164;2023-03-24T11:26:17;17.10;80.00
152;DHT22;68;48.792;9.164;2023-03-24T11:28:49;17.20;79.10
152;DHT22;68;48.792;9.164;2023-03-24T11:31:21;17.20;77.80
152;DHT22;68;48.792;9.164;2023-03-24T11:33:55;17.20;78.50
152;DHT22;68;48.792;9.164;2023-03-24T11:36:40;17.50;76.60
152;DHT22;68;48.792;9.164;2023-03-24T11:39:14;18.10;75.20
152;DHT22;68;48.792;9.164;2023-03-24T11:41:50;18.60;74.10
152;DHT22;68;48.792;9.164;2023-03-24T11:44:19;18.90;72.70
152;DHT22;68;48.792;9.164;2023-03-24T11:46:50;18.20;73.40
152;DHT22;68;48.792;9.164;2023-03-24T11:49:20;18.00;74.50
152;DHT22;68;48.792;9.164;2023-03-24T11:51:50;17.60;75.70
152;DHT22;68;48.792;9.164;2023-03-24T11:54:21;17.30;76.60
152;DHT22;68;48.792;9.164;2023-03-24T11:56:52;17.20;76.90
152;DHT22;68;48.792;9.164;2023-03-24T11:59:30;17.00;77.10
152;DHT22;68;48.792;9.164;2023-03-24T12:02:09;17.00;77.10
152;DHT22;68;48.792;9.164;2023-03-24T12:04:50;17.20;76.30
152;DHT22;68;48.792;9.164;2023-03-24T12:07:50;17.20;75.60
152;DHT22;68;48.792;9.164;2023-03-24T12:10:26;17.20;76.00
152;DHT22;68;48.792;9.164;2023-03-24T12:13:01;16.90;76.10
152;DHT22;68;48.792;9.164;2023-03-24T12:18:31;17.10;76.20
152;DHT22;68;48.792;9.164;2023-03-24T12:21:10;16.90;75.90
152;DHT22;68;48.792;9.164;2023-03-24T12:23:44;16.80;76.70
152;DHT22;68;48.792;9.164;2023-03-24T12:26:17;16.60;76.30
152;DHT22;68;48.792;9.164;2023-03-24T12:28:51;16.70;76.60
152;DHT22;68;48.792;9.164;2023-03-24T12:31:38;17.00;75.60
152;DHT22;68;48.792;9.164;2023-03-24T12:34:24;16.80;75.10
152;DHT22;68;48.792;9.164;2023-03-24T12:36:57;16.70;74.70
152;DHT22;68;48.792;9.164;2023-03-24T12:39:29;16.50;75.40
152;DHT22;68;48.792;9.164;2023-03-24T12:42:05;16.50;75.40
152;DHT22;68;48.792;9.164;2023-03-24T12:47:42;16.70;75.10
152;DHT22;68;48.792;9.164;2023-03-24T12:50:23;16.60;75.50
152;DHT22;68;48.792;9.164;2023-03-24T12:53:09;16.50;75.50
152;DHT22;68;48.792;9.164;2023-03-24T12:55:42;16.30;76.60
152;DHT22;68;48.792;9.164;2023-03-24T12:58:15;16.20;77.10
152;DHT22;68;48.792;9.164;2023-03-24T13:00:50;16.20;77.00
152;DHT22;68;48.792;9.164;2023-03-24T13:03:27;16.50;76.90
152;DHT22;68;48.792;9.164;2023-03-24T13:05:58;16.40;77.00
152;DHT22;68;48.792;9.164;2023-03-24T13:08:29;16.40;76.70
152;DHT22;68;48.792;9.164;2023-03-24T13:11:01;16.40;76.40
152;DHT22;68;48.792;9.164;2023-03-24T13:13:33;16.50;77.00
152;DHT22;68;48.792;9.164;2023-03-24T13:16:04;16.50;76.90
152;DHT22;68;48.792;9.164;2023-03-24T13:18:37;16.70;76.70
152;DHT22;68;48.792;9.164;2023-03-24T13:21:07;16.60;76.30
152;DHT22;68;48.792;9.164;2023-03-24T13:23:41;16.50;76.90
152;DHT22;68;48.792;9.164;2023-03-24T13:26:17;16.50;76.50
152;DHT22;68;48.792;9.164;2023-03-24T13:28:52;16.40;76.60
152;DHT22;68;48.792;9.164;2023-03-24T13:31:23;16.10;77.90
152;DHT22;68;48.792;9.164;2023-03-24T13:33:53;16.00;78.40
152;DHT22;68;48.792;9.164;2023-03-24T13:36:35;15.80;79.50
152;DHT22;68;48.792;9.164;2023-03-24T13:39:11;15.70;79.60
152;DHT22;68;48.792;9.164;2023-03-24T13:41:39;15.60;80.00
152;DHT22;68;48.792;9.164;2023-03-24T13:44:14;15.70;79.80
152;DHT22;68;48.792;9.164;2023-03-24T13:46:42;15.80;79.50
152;DHT22;68;48.792;9.164;2023-03-24T13:49:13;15.70;78.50
152;DHT22;68;48.792;9.164;2023-03-24T13:51:44;15.70;78.50
152;DHT22;68;48.792;9.164;2023-03-24T13:54:14;15.70;79.10
152;DHT22;68;48.792;9.164;2023-03-24T13:56:47;15.70;79.10
152;DHT22;68;48.792;9.164;2023-03-24T13:59:27;15.80;78.60
152;DHT22;68;48.792;9.164;2023-03-24T14:02:20;16.00;78.80
152;DHT22;68;48.792;9.164;2023-03-24T14:05:00;16.00;78.60
152;DHT22;68;48.792;9.164;2023-03-24T14:10:36;16.00;78.50
152;DHT22;68;48.792;9.164;2023-03-24T14:13:04;15.70;80.40
152;DHT22;68;48.792;9.164;2023-03-24T14:15:44;14.80;84.70
152;DHT22;68;48.792;9.164;2023-03-24T14:18:28;14.40;86.60
152;DHT22;68;48.792;9.164;2023-03-24T14:21:05;14.20;87.70
152;DHT22;68;48.792;9.164;2023-03-24T14:23:35;14.20;88.90
152;DHT22;68;48.792;9.164;2023-03-24T14:26:03;14.20;88.80
152;DHT22;68;48.792;9.164;2023-03-24T14:28:35;14.10;90.80
152;DHT22;68;48.792;9.164;2023-03-24T14:31:09;14.00;91.40
152;DHT22;68;48.792;9.164;2023-03-24T14:33:38;13.80;92.70
152;DHT22;68;48.792;9.164;2023-03-24T14:36:08;14.00;93.20
152;DHT22;68;48.792;9.164;2023-03-24T14:38:40;14.00;93.00
152;DHT22;68;48.792;9.164;2023-03-24T14:41:13;13.70;93.60
152;DHT22;68;48.792;9.164;2023-03-24T14:43:57;13.50;93.90
152;DHT22;68;48.792;9.164;2023-03-24T14:46:43;12.80;92.50
152;DHT22;68;48.792;9.164;2023-03-24T14:49:21;12.50;78.90
152;DHT22;68;48.792;9.164;2023-03-24T14:51:57;12.50;77.70
152;DHT22;68;48.792;9.164;2023-03-24T14:54:31;12.50;78.70
152;DHT22;68;48.792;9.164;2023-03-24T14:56:59;12.50;75.50
152;DHT22;68;48.792;9.164;2023-03-24T14:59:34;12.50;75.30
152;DHT22;68;48.792;9.164;2023-03-24T15:02:10;12.40;75.60
152;DHT22;68;48.792;9.164;2023-03-24T15:04:40;12.50;79.50
152;DHT22;68;48.792;9.164;2023-03-24T15:07:11;12.50;81.50
152;DHT22;68;48.792;9.164;2023-03-24T15:09:47;12.30;73.20
152;DHT22;68;48.792;9.164;2023-03-24T15:12:14;12.20;75.50
152;DHT22;68;48.792;9.164;2023-03-24T15:14:42;12.20;73.20
152;DHT22;68;48.792;9.164;2023-03-24T15:17:18;12.20;72.90
152;DHT22;68;48.792;9.164;2023-03-24T15:19:49;12.20;74.70
152;DHT22;68;48.792;9.164;2023-03-24T15:22:18;12.20;70.40
152;DHT22;68;48.792;9.164;2023-03-24T15:24:46;12.30;67.30
152;DHT22;68;48.792;9.164;2023-03-24T15:27:22;12.20;67.50
152;DHT22;68;48.792;9.164;2023-03-24T15:29:53;12.30;63.00
152;DHT22;68;48.792;9.164;2023-03-24T15:32:23;12.10;64.80
152;DHT22;68;48.792;9.164;2023-03-24T15:34:52;12.20;61.80
152;DHT22;68;48.792;9.164;2023-03-24T15:37:22;12.30;59.10
152;DHT22;68;48.792;9.164;2023-03-24T15:39:51;12.50;57.00
152;DHT22;68;48.792;9.164;2023-03-24T15:42:21;12.50;56.40
152;DHT22;68;48.792;9.164;2023-03-24T15:44:49;12.40;56.70
152;DHT22;68;48.792;9.164;2023-03-24T15:47:20;12.30;57.30
152;DHT22;68;48.792;9.164;2023-03-24T15:49:51;12.40;55.90
152;DHT22;68;48.792;9.164;2023-03-24T15:52:28;12.50;53.20
152;DHT22;68;48.792;9.164;2023-03-24T15:54:59;12.40;55.60
152;DHT22;68;48.792;9.164;2023-03-24T15:57:26;12.40;56.20
152;DHT22;68;48.792;9.164;2023-03-24T16:00:05;12.40;57.00
152;DHT22;68;48.792;9.164;2023-03-24T16:02:41;12.50;59.60
152;DHT22;68;48.792;9.164;2023-03-24T16:05:16;12.50;60.10
152;DHT22;68;48.792;9.164;2023-03-24T16:07:56;12.40;65.30
152;DHT22;68;48.792;9.164;2023-03-24T16:10:29;12.40;65.40
152;DHT22;68;48.792;9.164;2023-03-24T16:13:04;12.40;65.40
152;DHT22;68;48.792;9.164;2023-03-24T16:15:37;12.30;70.60
152;DHT22;68;48.792;9.164;2023-03-24T16:18:03;12.20;78.50
152;DHT22;68;48.792;9.164;2023-03-24T16:20:30;12.20;74.20
152;DHT22;68;48.792;9.164;2023-03-24T16:22:58;12.20;72.00
152;DHT22;68;48.792;9.164;2023-03-24T16:25:25;12.40;70.70
152;DHT22;68;48.792;9.164;2023-03-24T16:27:52;12.50;71.20
152;DHT22;68;48.792;9.164;2023-03-24T16:30:21;12.50;75.70
152;DHT22;68;48.792;9.164;2023-03-24T16:32:50;12.40;77.90
152;DHT22;68;48.792;9.164;2023-03-24T16:35:17;12.40;77.60
152;DHT22;68;48.792;9.164;2023-03-24T16:37:44;12.40;77.70
152;DHT22;68;48.792;9.164;2023-03-24T16:40:19;12.40;77.70
152;DHT22;68;48.792;9.164;2023-03-24T16:42:47;12.60;78.10
152;DHT22;68;48.792;9.164;2023-03-24T16:45:14;12.50;80.10
152;DHT22;68;48.792;9.164;2023-03-24T16:47:41;12.50;78.50
152;DHT22;68;48.792;9.164;2023-03-24T16:50:26;12.60;78.10
152;DHT22;68;48.792;9.164;2023-03-24T16:52:53;12.50;79.70
152;DHT22;68;48.792;9.164;2023-03-24T16:55:22;12.60;77.70
152;DHT22;68;48.792;9.164;2023-03-24T17:00:17;12.40;78.60
152;DHT22;68;48.792;9.164;2023-03-24T17:02:44;12.40;78.00
152;DHT22;68;48.792;9.164;2023-03-24T17:05:21;12.40;79.10
152;DHT22;68;48.792;9.164;2023-03-24T17:07:49;12.50;79.20
152;DHT22;68;48.792;9.164;2023-03-24T17:12:45;12.30;84.00
152;DHT22;68;48.792;9.164;2023-03-24T17:20:13;12.00;78.60
152;DHT22;68;48.792;9.164;2023-03-24T17:22:41;12.00;76.20
152;DHT22;68;48.792;9.164;2023-03-24T17:25:09;12.10;76.90
152;DHT22;68;48.792;9.164;2023-03-24T17:27:36;12.00;76.80
152;DHT22;68;48.792;9.164;2023-03-24T17:30:06;12.00;78.60
152;DHT22;68;48.792;9.164;2023-03-24T17:32:33;12.00;78.00
152;DHT22;68;48.792;9.164;2023-03-24T17:35:00;12.00;78.00
152;DHT22;68;48.792;9.164;2023-03-24T17:37:28;11.90;76.20
152;DHT22;68;48.792;9.164;2023-03-24T17:39:55;11.90;74.90
152;DHT22;68;48.792;9.164;2023-03-24T17:42:23;11.90;73.90
152;DHT22;68;48.792;9.164;2023-03-24T17:44:51;11.70;77.10